WMT8508 LICC-LIPX
Flight info
| Callsign | WMT8508 |
|---|---|
| Flight time | 1h 43m |
| Altitude | 36000 |
| Route | BUDIN DCT AGNIS DCT TEA DCT EVULI DCT KATAR DCT DIPVO/N0400F300 DCT PELEG DCT LUTOR DCT BOA Y72 XUBKA |
| Aircraft | A21N/M-SDE2E3FGHIRWXY/LB1 |
Departure
| Time | 2026-04-30 08:34 |
|---|---|
| Airport | Catania-Fontanarossa Airport (LICC) |
Arrival
| Time | 2026-04-30 10:17 |
|---|---|
| Airport | Verona Villafranca Valerio Catullo Airport (LIPX) |
| Time | Latitude | Longitude | Altitude | Speed | Heading |
|---|---|---|---|---|---|
| 2026-04-30 08:14 | 37.46930 | 15.06815 | 31 ft | 0 kts | 353° |
| 2026-04-30 08:26 | 37.46922 | 15.06816 | 31 ft | 2 kts | 354° |
| 2026-04-30 08:26 | 37.46907 | 15.06818 | 30 ft | 2 kts | 354° |
| 2026-04-30 08:26 | 37.46892 | 15.06820 | 30 ft | 2 kts | 354° |
| 2026-04-30 08:26 | 37.46877 | 15.06821 | 29 ft | 2 kts | 349° |
| 2026-04-30 08:27 | 37.46865 | 15.06832 | 29 ft | 2 kts | 303° |
| 2026-04-30 08:27 | 37.46860 | 15.06850 | 29 ft | 2 kts | 264° |
| 2026-04-30 08:27 | 37.46862 | 15.06865 | 29 ft | 0 kts | 261° |
| 2026-04-30 08:27 | 37.46863 | 15.06868 | 29 ft | 0 kts | 263° |
| 2026-04-30 08:29 | 37.46862 | 15.06866 | 29 ft | 1 kts | 263° |
| 2026-04-30 08:29 | 37.46861 | 15.06849 | 29 ft | 2 kts | 263° |
| 2026-04-30 08:29 | 37.46857 | 15.06808 | 30 ft | 6 kts | 264° |
| 2026-04-30 08:30 | 37.46852 | 15.06746 | 31 ft | 8 kts | 264° |
| 2026-04-30 08:30 | 37.46846 | 15.06670 | 31 ft | 10 kts | 264° |
| 2026-04-30 08:30 | 37.46836 | 15.06556 | 30 ft | 15 kts | 264° |
| 2026-04-30 08:30 | 37.46824 | 15.06410 | 30 ft | 17 kts | 264° |
| 2026-04-30 08:31 | 37.46811 | 15.06257 | 35 ft | 17 kts | 264° |
| 2026-04-30 08:31 | 37.46799 | 15.06111 | 40 ft | 16 kts | 264° |
| 2026-04-30 08:31 | 37.46787 | 15.05977 | 45 ft | 14 kts | 264° |
| 2026-04-30 08:31 | 37.46777 | 15.05850 | 50 ft | 14 kts | 264° |
| 2026-04-30 08:32 | 37.46766 | 15.05727 | 53 ft | 14 kts | 264° |
| 2026-04-30 08:32 | 37.46756 | 15.05601 | 57 ft | 14 kts | 264° |
| 2026-04-30 08:32 | 37.46744 | 15.05468 | 58 ft | 16 kts | 264° |
| 2026-04-30 08:32 | 37.46726 | 15.05330 | 58 ft | 14 kts | 241° |
| 2026-04-30 08:33 | 37.46654 | 15.05236 | 58 ft | 14 kts | 222° |
| 2026-04-30 08:33 | 37.46597 | 15.05189 | 59 ft | 5 kts | 197° |
| 2026-04-30 08:33 | 37.46564 | 15.05195 | 59 ft | 4 kts | 131° |
| 2026-04-30 08:33 | 37.46561 | 15.05242 | 59 ft | 6 kts | 85° |
| 2026-04-30 08:34 | 37.46577 | 15.05422 | 58 ft | 53 kts | 84° |
| 2026-04-30 08:34 | 37.46644 | 15.06216 | 36 ft | 127 kts | 84° |
| 2026-04-30 08:34 | 37.46762 | 15.07565 | 128 ft | 173 kts | 83° |
| 2026-04-30 08:34 | 37.46898 | 15.09037 | 828 ft | 169 kts | 82° |
| 2026-04-30 08:35 | 37.47074 | 15.10492 | 1516 ft | 173 kts | 81° |
| 2026-04-30 08:35 | 37.47290 | 15.12034 | 2015 ft | 189 kts | 81° |
| 2026-04-30 08:35 | 37.47528 | 15.13699 | 2534 ft | 203 kts | 80° |
| 2026-04-30 08:35 | 37.47787 | 15.15526 | 3047 ft | 220 kts | 81° |
| 2026-04-30 08:36 | 37.48058 | 15.17498 | 3505 ft | 241 kts | 81° |
| 2026-04-30 08:36 | 37.48349 | 15.19624 | 4153 ft | 254 kts | 81° |
| 2026-04-30 08:36 | 37.48657 | 15.21848 | 4979 ft | 260 kts | 81° |
| 2026-04-30 08:36 | 37.48967 | 15.24068 | 5788 ft | 265 kts | 81° |
| 2026-04-30 08:37 | 37.49288 | 15.26363 | 6592 ft | 270 kts | 80° |
| 2026-04-30 08:37 | 37.49869 | 15.28617 | 7335 ft | 277 kts | 57° |
| 2026-04-30 08:37 | 37.51223 | 15.30338 | 7954 ft | 284 kts | 32° |
| 2026-04-30 08:37 | 37.52934 | 15.31642 | 8633 ft | 292 kts | 29° |
| 2026-04-30 08:38 | 37.54689 | 15.32955 | 9403 ft | 297 kts | 29° |
| 2026-04-30 08:38 | 37.56455 | 15.34295 | 10153 ft | 300 kts | 29° |
| 2026-04-30 08:38 | 37.58243 | 15.35669 | 10757 ft | 310 kts | 29° |
| 2026-04-30 08:38 | 37.60121 | 15.37127 | 11350 ft | 319 kts | 29° |
| 2026-04-30 08:39 | 37.62006 | 15.38600 | 12061 ft | 323 kts | 30° |
| 2026-04-30 08:39 | 37.63923 | 15.40105 | 12779 ft | 327 kts | 29° |
| 2026-04-30 08:39 | 37.65864 | 15.41629 | 13460 ft | 330 kts | 29° |
| 2026-04-30 08:39 | 37.67810 | 15.43159 | 14134 ft | 334 kts | 29° |
| 2026-04-30 08:40 | 37.69796 | 15.44694 | 14801 ft | 336 kts | 25° |
| 2026-04-30 08:40 | 37.71999 | 15.45561 | 15413 ft | 332 kts | 360° |
| 2026-04-30 08:40 | 37.74245 | 15.45183 | 16086 ft | 325 kts | 338° |
| 2026-04-30 08:40 | 37.76332 | 15.44137 | 16750 ft | 325 kts | 334° |
| 2026-04-30 08:41 | 37.78437 | 15.43050 | 17395 ft | 328 kts | 334° |
| 2026-04-30 08:41 | 37.80564 | 15.41960 | 18025 ft | 331 kts | 334° |
| 2026-04-30 08:41 | 37.82724 | 15.40863 | 18625 ft | 334 kts | 335° |
| 2026-04-30 08:41 | 37.84874 | 15.39776 | 19211 ft | 336 kts | 335° |
| 2026-04-30 08:42 | 37.87058 | 15.38677 | 19805 ft | 339 kts | 335° |
| 2026-04-30 08:42 | 37.89231 | 15.37584 | 20370 ft | 341 kts | 335° |
| 2026-04-30 08:42 | 37.91442 | 15.36472 | 20918 ft | 344 kts | 335° |
| 2026-04-30 08:42 | 37.93667 | 15.35354 | 21460 ft | 347 kts | 335° |
| 2026-04-30 08:43 | 37.95920 | 15.34222 | 21999 ft | 349 kts | 335° |
| 2026-04-30 08:43 | 37.98195 | 15.33079 | 22532 ft | 351 kts | 335° |
| 2026-04-30 08:43 | 38.00461 | 15.31939 | 23052 ft | 354 kts | 335° |
| 2026-04-30 08:43 | 38.02769 | 15.30778 | 23564 ft | 356 kts | 335° |
| 2026-04-30 08:44 | 38.05070 | 15.29619 | 24049 ft | 358 kts | 335° |
| 2026-04-30 08:44 | 38.07378 | 15.28455 | 24510 ft | 361 kts | 335° |
| 2026-04-30 08:44 | 38.09713 | 15.27278 | 24970 ft | 364 kts | 335° |
| 2026-04-30 08:44 | 38.12078 | 15.26085 | 25407 ft | 367 kts | 335° |
| 2026-04-30 08:45 | 38.14457 | 15.24884 | 25838 ft | 369 kts | 335° |
| 2026-04-30 08:45 | 38.16859 | 15.23669 | 26262 ft | 372 kts | 335° |
| 2026-04-30 08:45 | 38.19250 | 15.22459 | 26656 ft | 374 kts | 335° |
| 2026-04-30 08:45 | 38.21679 | 15.21230 | 27049 ft | 377 kts | 335° |
| 2026-04-30 08:46 | 38.24133 | 15.19989 | 27456 ft | 379 kts | 335° |
| 2026-04-30 08:46 | 38.26591 | 15.18742 | 27843 ft | 382 kts | 335° |
| 2026-04-30 08:46 | 38.29080 | 15.17479 | 28217 ft | 385 kts | 334° |
| 2026-04-30 08:46 | 38.31557 | 15.16221 | 28582 ft | 388 kts | 335° |
| 2026-04-30 08:47 | 38.34069 | 15.14944 | 28945 ft | 391 kts | 335° |
| 2026-04-30 08:47 | 38.36588 | 15.13663 | 29306 ft | 393 kts | 335° |
| 2026-04-30 08:47 | 38.39151 | 15.12359 | 29667 ft | 396 kts | 335° |
| 2026-04-30 08:47 | 38.41723 | 15.11050 | 30018 ft | 398 kts | 335° |
| 2026-04-30 08:48 | 38.44288 | 15.09757 | 30361 ft | 401 kts | 336° |
| 2026-04-30 08:48 | 38.46962 | 15.08585 | 30706 ft | 404 kts | 339° |
| 2026-04-30 08:48 | 38.49655 | 15.07627 | 31055 ft | 407 kts | 342° |
| 2026-04-30 08:48 | 38.52446 | 15.06851 | 31428 ft | 409 kts | 345° |
| 2026-04-30 08:49 | 38.55213 | 15.06168 | 31783 ft | 410 kts | 345° |
| 2026-04-30 08:49 | 38.58043 | 15.05484 | 32107 ft | 411 kts | 345° |
| 2026-04-30 08:49 | 38.60845 | 15.04807 | 32413 ft | 413 kts | 345° |
| 2026-04-30 08:49 | 38.63690 | 15.04118 | 32728 ft | 414 kts | 345° |
| 2026-04-30 08:50 | 38.66519 | 15.03430 | 33025 ft | 416 kts | 345° |
| 2026-04-30 08:50 | 38.69371 | 15.02736 | 33322 ft | 417 kts | 345° |
| 2026-04-30 08:50 | 38.72206 | 15.02044 | 33617 ft | 418 kts | 345° |
| 2026-04-30 08:50 | 38.75054 | 15.01349 | 33910 ft | 419 kts | 345° |
| 2026-04-30 08:51 | 38.77933 | 15.00645 | 34193 ft | 420 kts | 345° |
| 2026-04-30 08:51 | 38.80830 | 14.99937 | 34458 ft | 421 kts | 345° |
| 2026-04-30 08:51 | 38.83678 | 14.99239 | 34697 ft | 422 kts | 345° |
| 2026-04-30 08:51 | 38.86569 | 14.98532 | 34996 ft | 421 kts | 345° |
| 2026-04-30 08:52 | 38.89452 | 14.97827 | 35313 ft | 419 kts | 345° |
| 2026-04-30 08:52 | 38.92296 | 14.97128 | 35600 ft | 418 kts | 345° |
| 2026-04-30 08:52 | 38.95134 | 14.96430 | 35846 ft | 418 kts | 345° |
| 2026-04-30 08:52 | 38.98000 | 14.95724 | 36069 ft | 418 kts | 345° |
| 2026-04-30 08:53 | 39.00869 | 14.95015 | 36334 ft | 418 kts | 345° |
| 2026-04-30 08:53 | 39.03696 | 14.94319 | 36593 ft | 419 kts | 345° |
| 2026-04-30 08:53 | 39.06580 | 14.93606 | 36832 ft | 420 kts | 345° |
| 2026-04-30 08:53 | 39.09423 | 14.92904 | 37062 ft | 421 kts | 345° |
| 2026-04-30 08:54 | 39.12306 | 14.92193 | 37296 ft | 421 kts | 345° |
| 2026-04-30 08:54 | 39.15187 | 14.91481 | 37531 ft | 422 kts | 345° |
| 2026-04-30 08:54 | 39.18069 | 14.90768 | 37770 ft | 422 kts | 345° |
| 2026-04-30 08:54 | 39.20945 | 14.90003 | 37996 ft | 420 kts | 341° |
| 2026-04-30 08:55 | 39.23702 | 14.88760 | 38057 ft | 417 kts | 333° |
| 2026-04-30 08:55 | 39.28927 | 14.85559 | 38070 ft | 416 kts | 330° |
| 2026-04-30 08:56 | 39.34115 | 14.82304 | 38060 ft | 417 kts | 331° |
| 2026-04-30 08:56 | 39.39344 | 14.79038 | 38069 ft | 417 kts | 331° |
| 2026-04-30 08:57 | 39.44547 | 14.75790 | 38065 ft | 416 kts | 331° |
| 2026-04-30 08:57 | 39.49756 | 14.72537 | 38071 ft | 416 kts | 331° |
| 2026-04-30 08:58 | 39.54950 | 14.69292 | 38066 ft | 416 kts | 331° |
| 2026-04-30 08:58 | 39.60147 | 14.66039 | 38060 ft | 416 kts | 331° |
| 2026-04-30 08:59 | 39.65384 | 14.62757 | 38066 ft | 416 kts | 331° |
| 2026-04-30 08:59 | 39.70578 | 14.59495 | 38073 ft | 416 kts | 331° |
| 2026-04-30 09:00 | 39.75784 | 14.56221 | 38068 ft | 416 kts | 331° |
| 2026-04-30 09:00 | 39.80978 | 14.52950 | 38072 ft | 416 kts | 331° |
| 2026-04-30 09:01 | 39.86205 | 14.49651 | 38082 ft | 416 kts | 331° |
| 2026-04-30 09:01 | 39.91385 | 14.46377 | 38064 ft | 416 kts | 332° |
| 2026-04-30 09:02 | 39.99194 | 14.41433 | 38080 ft | 416 kts | 331° |
| 2026-04-30 09:02 | 40.04403 | 14.38127 | 38068 ft | 415 kts | 331° |
| 2026-04-30 09:03 | 40.09574 | 14.34838 | 38079 ft | 415 kts | 331° |
| 2026-04-30 09:03 | 40.14764 | 14.31532 | 38085 ft | 415 kts | 330° |
| 2026-04-30 09:04 | 40.19957 | 14.28219 | 38082 ft | 415 kts | 330° |
| 2026-04-30 09:04 | 40.25134 | 14.24910 | 38084 ft | 415 kts | 330° |
| 2026-04-30 09:05 | 40.30332 | 14.21582 | 38086 ft | 415 kts | 330° |
| 2026-04-30 09:05 | 40.35513 | 14.18260 | 38090 ft | 415 kts | 330° |
| 2026-04-30 09:06 | 40.40694 | 14.14931 | 38092 ft | 415 kts | 330° |
| 2026-04-30 09:06 | 40.45878 | 14.11594 | 38094 ft | 415 kts | 330° |
| 2026-04-30 09:07 | 40.51038 | 14.08268 | 38086 ft | 414 kts | 330° |
| 2026-04-30 09:07 | 40.56195 | 14.04938 | 38085 ft | 414 kts | 330° |
| 2026-04-30 09:08 | 40.61400 | 14.01571 | 38076 ft | 414 kts | 331° |
| 2026-04-30 09:08 | 40.66556 | 13.98228 | 38079 ft | 414 kts | 331° |
| 2026-04-30 09:09 | 40.71727 | 13.94874 | 38072 ft | 414 kts | 331° |
| 2026-04-30 09:09 | 40.76891 | 13.91518 | 38091 ft | 414 kts | 330° |
| 2026-04-30 09:10 | 40.82052 | 13.88155 | 38087 ft | 413 kts | 330° |
| 2026-04-30 09:10 | 40.87211 | 13.84789 | 38088 ft | 414 kts | 330° |
| 2026-04-30 09:11 | 40.92356 | 13.81425 | 38093 ft | 413 kts | 330° |
| 2026-04-30 09:11 | 40.97479 | 13.78070 | 38090 ft | 412 kts | 330° |
| 2026-04-30 09:12 | 41.02637 | 13.74688 | 38088 ft | 412 kts | 330° |
| 2026-04-30 09:12 | 41.07771 | 13.71314 | 38090 ft | 413 kts | 330° |
| 2026-04-30 09:13 | 41.12892 | 13.67944 | 38078 ft | 413 kts | 330° |
| 2026-04-30 09:13 | 41.18027 | 13.64559 | 38094 ft | 412 kts | 330° |
| 2026-04-30 09:14 | 41.23168 | 13.61162 | 38093 ft | 412 kts | 330° |
| 2026-04-30 09:14 | 41.28291 | 13.57772 | 38100 ft | 411 kts | 330° |
| 2026-04-30 09:15 | 41.33431 | 13.54365 | 38096 ft | 411 kts | 330° |
| 2026-04-30 09:15 | 41.38559 | 13.50958 | 38100 ft | 412 kts | 330° |
| 2026-04-30 09:16 | 41.43696 | 13.47540 | 38109 ft | 411 kts | 330° |
| 2026-04-30 09:16 | 41.48948 | 13.44040 | 38107 ft | 411 kts | 330° |
| 2026-04-30 09:17 | 41.54126 | 13.40584 | 38115 ft | 411 kts | 330° |
| 2026-04-30 09:17 | 41.59273 | 13.37141 | 38108 ft | 411 kts | 330° |
| 2026-04-30 09:18 | 41.64366 | 13.33728 | 38115 ft | 411 kts | 329° |
| 2026-04-30 09:18 | 41.69481 | 13.30294 | 38111 ft | 411 kts | 329° |
| 2026-04-30 09:19 | 41.74620 | 13.26839 | 38112 ft | 411 kts | 329° |
| 2026-04-30 09:19 | 41.79804 | 13.23346 | 38120 ft | 410 kts | 329° |
| 2026-04-30 09:20 | 41.84948 | 13.19875 | 38120 ft | 410 kts | 329° |
| 2026-04-30 09:20 | 41.90057 | 13.16419 | 38123 ft | 410 kts | 329° |
| 2026-04-30 09:21 | 41.95141 | 13.12975 | 38117 ft | 410 kts | 329° |
| 2026-04-30 09:21 | 42.00285 | 13.09483 | 38107 ft | 411 kts | 329° |
| 2026-04-30 09:22 | 42.05391 | 13.06012 | 38115 ft | 410 kts | 329° |
| 2026-04-30 09:22 | 42.10486 | 13.02544 | 38115 ft | 410 kts | 329° |
| 2026-04-30 09:23 | 42.15535 | 12.99099 | 38112 ft | 409 kts | 329° |
| 2026-04-30 09:23 | 42.20599 | 12.95638 | 38123 ft | 409 kts | 329° |
| 2026-04-30 09:24 | 42.25709 | 12.92137 | 38128 ft | 408 kts | 329° |
| 2026-04-30 09:24 | 42.30770 | 12.88665 | 38136 ft | 407 kts | 329° |
| 2026-04-30 09:25 | 42.35834 | 12.85184 | 38145 ft | 407 kts | 329° |
| 2026-04-30 09:25 | 42.40902 | 12.81697 | 38133 ft | 408 kts | 329° |
| 2026-04-30 09:26 | 42.45942 | 12.78218 | 38154 ft | 407 kts | 329° |
| 2026-04-30 09:26 | 42.50990 | 12.74729 | 38139 ft | 407 kts | 329° |
| 2026-04-30 09:27 | 42.56036 | 12.71238 | 38141 ft | 406 kts | 329° |
| 2026-04-30 09:27 | 42.61057 | 12.67755 | 38150 ft | 405 kts | 329° |
| 2026-04-30 09:28 | 42.66092 | 12.64259 | 38147 ft | 406 kts | 329° |
| 2026-04-30 09:28 | 42.71135 | 12.60746 | 38148 ft | 405 kts | 329° |
| 2026-04-30 09:29 | 42.76149 | 12.57250 | 38168 ft | 405 kts | 329° |
| 2026-04-30 09:29 | 42.81142 | 12.53761 | 38167 ft | 404 kts | 329° |
| 2026-04-30 09:30 | 42.86161 | 12.50249 | 38149 ft | 404 kts | 329° |
| 2026-04-30 09:30 | 42.91191 | 12.46746 | 38157 ft | 405 kts | 330° |
| 2026-04-30 09:31 | 42.96295 | 12.43532 | 38157 ft | 405 kts | 332° |
| 2026-04-30 09:31 | 43.01459 | 12.40307 | 38166 ft | 404 kts | 332° |
| 2026-04-30 09:32 | 43.06551 | 12.37101 | 38172 ft | 404 kts | 332° |
| 2026-04-30 09:32 | 43.11658 | 12.33870 | 38178 ft | 404 kts | 331° |
| 2026-04-30 09:33 | 43.16770 | 12.30624 | 38183 ft | 404 kts | 331° |
| 2026-04-30 09:33 | 43.21856 | 12.27389 | 38183 ft | 405 kts | 331° |
| 2026-04-30 09:34 | 43.26992 | 12.24115 | 38175 ft | 405 kts | 331° |
| 2026-04-30 09:34 | 43.32074 | 12.20869 | 38188 ft | 405 kts | 331° |
| 2026-04-30 09:35 | 43.37190 | 12.17596 | 38192 ft | 405 kts | 331° |
| 2026-04-30 09:35 | 43.42306 | 12.14314 | 38187 ft | 405 kts | 331° |
| 2026-04-30 09:36 | 43.47430 | 12.11022 | 38197 ft | 405 kts | 331° |
| 2026-04-30 09:36 | 43.52546 | 12.07728 | 38199 ft | 406 kts | 332° |
| 2026-04-30 09:37 | 43.57669 | 12.04427 | 38218 ft | 405 kts | 332° |
| 2026-04-30 09:37 | 43.62784 | 12.01121 | 38212 ft | 405 kts | 332° |
| 2026-04-30 09:38 | 43.67909 | 11.97805 | 38212 ft | 406 kts | 332° |
| 2026-04-30 09:38 | 43.72968 | 11.94525 | 37965 ft | 399 kts | 332° |
| 2026-04-30 09:39 | 43.75475 | 11.92901 | 37430 ft | 398 kts | 331° |
| 2026-04-30 09:39 | 43.77965 | 11.91285 | 36854 ft | 396 kts | 331° |
| 2026-04-30 09:39 | 43.80443 | 11.89674 | 36230 ft | 393 kts | 331° |
| 2026-04-30 09:39 | 43.82916 | 11.88064 | 35709 ft | 391 kts | 330° |
| 2026-04-30 09:40 | 43.85382 | 11.86457 | 35165 ft | 391 kts | 330° |
| 2026-04-30 09:40 | 43.87837 | 11.84853 | 34584 ft | 391 kts | 330° |
| 2026-04-30 09:40 | 43.90278 | 11.83259 | 34091 ft | 386 kts | 330° |
| 2026-04-30 09:40 | 43.92687 | 11.81688 | 33629 ft | 381 kts | 330° |
| 2026-04-30 09:41 | 43.95099 | 11.80109 | 33131 ft | 377 kts | 330° |
| 2026-04-30 09:41 | 43.97444 | 11.78571 | 32613 ft | 374 kts | 330° |
| 2026-04-30 09:41 | 43.99782 | 11.77040 | 32101 ft | 370 kts | 330° |
| 2026-04-30 09:41 | 44.02122 | 11.75504 | 31586 ft | 367 kts | 330° |
| 2026-04-30 09:42 | 44.04412 | 11.73999 | 31080 ft | 364 kts | 330° |
| 2026-04-30 09:42 | 44.06668 | 11.72515 | 30594 ft | 360 kts | 330° |
| 2026-04-30 09:42 | 44.08946 | 11.71016 | 30072 ft | 357 kts | 330° |
| 2026-04-30 09:42 | 44.11200 | 11.69528 | 29540 ft | 354 kts | 330° |
| 2026-04-30 09:43 | 44.13448 | 11.68044 | 29010 ft | 352 kts | 331° |
| 2026-04-30 09:43 | 44.15675 | 11.66572 | 28467 ft | 351 kts | 331° |
| 2026-04-30 09:43 | 44.17889 | 11.65110 | 27937 ft | 349 kts | 332° |
| 2026-04-30 09:43 | 44.20092 | 11.63653 | 27399 ft | 347 kts | 332° |
| 2026-04-30 09:44 | 44.22340 | 11.62168 | 26874 ft | 345 kts | 332° |
| 2026-04-30 09:44 | 44.24547 | 11.60704 | 26357 ft | 343 kts | 333° |
| 2026-04-30 09:44 | 44.26736 | 11.59253 | 25819 ft | 342 kts | 333° |
| 2026-04-30 09:44 | 44.28877 | 11.57836 | 25318 ft | 340 kts | 333° |
| 2026-04-30 09:45 | 44.31001 | 11.56427 | 24813 ft | 338 kts | 334° |
| 2026-04-30 09:45 | 44.33111 | 11.55028 | 24297 ft | 337 kts | 334° |
| 2026-04-30 09:45 | 44.35225 | 11.53625 | 23780 ft | 336 kts | 334° |
| 2026-04-30 09:45 | 44.37330 | 11.52227 | 23272 ft | 334 kts | 334° |
| 2026-04-30 09:46 | 44.39408 | 11.50847 | 22771 ft | 331 kts | 334° |
| 2026-04-30 09:46 | 44.41500 | 11.49455 | 22274 ft | 329 kts | 334° |
| 2026-04-30 09:46 | 44.43581 | 11.48068 | 21766 ft | 328 kts | 334° |
| 2026-04-30 09:46 | 44.45624 | 11.46706 | 21281 ft | 326 kts | 335° |
| 2026-04-30 09:47 | 44.47671 | 11.45339 | 20792 ft | 324 kts | 335° |
| 2026-04-30 09:47 | 44.49709 | 11.43980 | 20285 ft | 322 kts | 335° |
| 2026-04-30 09:47 | 44.51725 | 11.42635 | 19794 ft | 321 kts | 335° |
| 2026-04-30 09:47 | 44.53752 | 11.41280 | 19310 ft | 319 kts | 335° |
| 2026-04-30 09:48 | 44.55767 | 11.39931 | 18907 ft | 317 kts | 335° |
| 2026-04-30 09:48 | 44.57768 | 11.38591 | 18521 ft | 317 kts | 335° |
| 2026-04-30 09:48 | 44.59753 | 11.37260 | 18138 ft | 314 kts | 335° |
| 2026-04-30 09:48 | 44.61716 | 11.35942 | 17769 ft | 309 kts | 335° |
| 2026-04-30 09:49 | 44.63640 | 11.34649 | 17396 ft | 306 kts | 335° |
| 2026-04-30 09:49 | 44.65588 | 11.33340 | 17012 ft | 302 kts | 335° |
| 2026-04-30 09:49 | 44.67517 | 11.32042 | 16631 ft | 298 kts | 335° |
| 2026-04-30 09:49 | 44.69394 | 11.30779 | 16254 ft | 297 kts | 335° |
| 2026-04-30 09:50 | 44.71265 | 11.29518 | 15881 ft | 296 kts | 335° |
| 2026-04-30 09:50 | 44.73131 | 11.28260 | 15518 ft | 296 kts | 335° |
| 2026-04-30 09:50 | 44.75021 | 11.26985 | 15167 ft | 295 kts | 335° |
| 2026-04-30 09:50 | 44.76899 | 11.25718 | 14812 ft | 291 kts | 335° |
| 2026-04-30 09:51 | 44.78765 | 11.24457 | 14460 ft | 287 kts | 335° |
| 2026-04-30 09:51 | 44.80568 | 11.23239 | 14100 ft | 284 kts | 335° |
| 2026-04-30 09:51 | 44.82339 | 11.22041 | 13758 ft | 281 kts | 335° |
| 2026-04-30 09:51 | 44.84108 | 11.20843 | 13518 ft | 279 kts | 336° |
| 2026-04-30 09:52 | 44.85849 | 11.19663 | 13210 ft | 278 kts | 336° |
| 2026-04-30 09:52 | 44.87591 | 11.18481 | 12860 ft | 277 kts | 336° |
| 2026-04-30 09:52 | 44.89285 | 11.17213 | 12488 ft | 277 kts | 328° |
| 2026-04-30 09:52 | 44.90768 | 11.15467 | 12111 ft | 279 kts | 316° |
| 2026-04-30 09:53 | 44.91968 | 11.13347 | 11735 ft | 280 kts | 308° |
| 2026-04-30 09:53 | 44.93080 | 11.11102 | 11352 ft | 279 kts | 308° |
| 2026-04-30 09:53 | 44.94183 | 11.08834 | 10986 ft | 277 kts | 307° |
| 2026-04-30 09:53 | 44.95273 | 11.06597 | 10618 ft | 276 kts | 308° |
| 2026-04-30 09:54 | 44.96357 | 11.04377 | 10342 ft | 274 kts | 308° |
| 2026-04-30 09:54 | 44.97442 | 11.02163 | 10226 ft | 273 kts | 308° |
| 2026-04-30 09:54 | 44.98523 | 10.99956 | 9864 ft | 272 kts | 308° |
| 2026-04-30 09:54 | 44.99591 | 10.97778 | 9639 ft | 264 kts | 308° |
| 2026-04-30 09:55 | 45.00615 | 10.95686 | 9462 ft | 255 kts | 308° |
| 2026-04-30 09:55 | 45.01617 | 10.93638 | 9294 ft | 247 kts | 308° |
| 2026-04-30 09:55 | 45.02575 | 10.91677 | 9087 ft | 241 kts | 308° |
| 2026-04-30 09:55 | 45.03530 | 10.89730 | 8705 ft | 243 kts | 308° |
| 2026-04-30 09:56 | 45.04504 | 10.87745 | 8342 ft | 243 kts | 308° |
| 2026-04-30 09:56 | 45.05466 | 10.85779 | 8009 ft | 243 kts | 307° |
| 2026-04-30 09:56 | 45.06421 | 10.83822 | 7672 ft | 242 kts | 308° |
| 2026-04-30 09:56 | 45.07370 | 10.81881 | 7337 ft | 242 kts | 307° |
| 2026-04-30 09:57 | 45.08329 | 10.79913 | 7018 ft | 240 kts | 307° |
| 2026-04-30 09:57 | 45.09275 | 10.77973 | 6692 ft | 239 kts | 307° |
| 2026-04-30 09:57 | 45.10219 | 10.76033 | 6370 ft | 239 kts | 307° |
| 2026-04-30 09:57 | 45.11172 | 10.74075 | 6042 ft | 238 kts | 307° |
| 2026-04-30 09:58 | 45.12127 | 10.72111 | 5715 ft | 238 kts | 307° |
| 2026-04-30 09:58 | 45.13068 | 10.70178 | 5397 ft | 237 kts | 307° |
| 2026-04-30 09:58 | 45.14061 | 10.68328 | 5084 ft | 235 kts | 314° |
| 2026-04-30 09:58 | 45.15192 | 10.66668 | 4815 ft | 231 kts | 318° |
| 2026-04-30 09:59 | 45.17477 | 10.63540 | 4424 ft | 219 kts | 319° |
| 2026-04-30 09:59 | 45.20073 | 10.61580 | 3965 ft | 208 kts | 11° |
| 2026-04-30 10:00 | 45.22324 | 10.63607 | 3666 ft | 191 kts | 49° |
| 2026-04-30 10:00 | 45.23246 | 10.64970 | 3358 ft | 192 kts | 50° |
| 2026-04-30 10:01 | 45.25073 | 10.67704 | 2971 ft | 188 kts | 50° |
| 2026-04-30 10:01 | 45.25986 | 10.69052 | 2965 ft | 189 kts | 49° |
| 2026-04-30 10:01 | 45.26886 | 10.70372 | 2970 ft | 183 kts | 49° |
| 2026-04-30 10:02 | 45.28646 | 10.72940 | 3021 ft | 179 kts | 49° |
| 2026-04-30 10:02 | 45.29507 | 10.74193 | 2787 ft | 172 kts | 49° |
| 2026-04-30 10:02 | 45.30323 | 10.75379 | 2555 ft | 165 kts | 50° |
| 2026-04-30 10:02 | 45.31107 | 10.76521 | 2335 ft | 157 kts | 50° |
| 2026-04-30 10:03 | 45.31841 | 10.77589 | 2131 ft | 147 kts | 50° |
| 2026-04-30 10:03 | 45.32544 | 10.78613 | 1968 ft | 143 kts | 50° |
| 2026-04-30 10:03 | 45.33235 | 10.79621 | 1794 ft | 137 kts | 50° |
| 2026-04-30 10:03 | 45.33882 | 10.80561 | 1596 ft | 130 kts | 50° |
| 2026-04-30 10:04 | 45.34510 | 10.81478 | 1429 ft | 130 kts | 50° |
| 2026-04-30 10:04 | 45.35148 | 10.82408 | 1255 ft | 128 kts | 50° |
| 2026-04-30 10:04 | 45.35764 | 10.83306 | 1088 ft | 128 kts | 50° |
| 2026-04-30 10:04 | 45.36392 | 10.84219 | 917 ft | 127 kts | 49° |
| 2026-04-30 10:05 | 45.37008 | 10.85120 | 749 ft | 127 kts | 50° |
| 2026-04-30 10:05 | 45.37626 | 10.86019 | 579 ft | 125 kts | 49° |
| 2026-04-30 10:05 | 45.38240 | 10.86917 | 405 ft | 127 kts | 50° |
| 2026-04-30 10:05 | 45.38851 | 10.87802 | 272 ft | 125 kts | 49° |
| 2026-04-30 10:06 | 45.39444 | 10.88667 | 251 ft | 128 kts | 48° |
| 2026-04-30 10:06 | 45.40094 | 10.89580 | 877 ft | 134 kts | 47° |
| 2026-04-30 10:06 | 45.40755 | 10.90499 | 1640 ft | 136 kts | 49° |
| 2026-04-30 10:06 | 45.41376 | 10.91460 | 2244 ft | 135 kts | 64° |
| 2026-04-30 10:07 | 45.41329 | 10.92746 | 2560 ft | 141 kts | 124° |
| 2026-04-30 10:07 | 45.40444 | 10.93444 | 2900 ft | 159 kts | 167° |
| 2026-04-30 10:07 | 45.39302 | 10.93535 | 3377 ft | 172 kts | 177° |
| 2026-04-30 10:07 | 45.38074 | 10.93914 | 3285 ft | 187 kts | 149° |
| 2026-04-30 10:08 | 45.37056 | 10.95092 | 3086 ft | 193 kts | 140° |
| 2026-04-30 10:08 | 45.35822 | 10.95828 | 3000 ft | 198 kts | 172° |
| 2026-04-30 10:08 | 45.34434 | 10.95477 | 2999 ft | 220 kts | 208° |
| 2026-04-30 10:08 | 45.33233 | 10.93915 | 3483 ft | 243 kts | 224° |
| 2026-04-30 10:09 | 45.32077 | 10.92305 | 4248 ft | 231 kts | 221° |
| 2026-04-30 10:09 | 45.30901 | 10.90758 | 4745 ft | 231 kts | 221° |
| 2026-04-30 10:09 | 45.29698 | 10.89194 | 4960 ft | 238 kts | 221° |
| 2026-04-30 10:09 | 45.28465 | 10.87584 | 4963 ft | 241 kts | 221° |
| 2026-04-30 10:10 | 45.27228 | 10.85963 | 4965 ft | 242 kts | 221° |
| 2026-04-30 10:10 | 45.25993 | 10.84347 | 4941 ft | 239 kts | 221° |
| 2026-04-30 10:10 | 45.24781 | 10.82757 | 4762 ft | 232 kts | 221° |
| 2026-04-30 10:10 | 45.23614 | 10.81228 | 4601 ft | 224 kts | 221° |
| 2026-04-30 10:11 | 45.22486 | 10.79751 | 4419 ft | 217 kts | 221° |
| 2026-04-30 10:11 | 45.21381 | 10.78304 | 4215 ft | 211 kts | 220° |
| 2026-04-30 10:11 | 45.20466 | 10.76716 | 4068 ft | 204 kts | 247° |
| 2026-04-30 10:11 | 45.20466 | 10.74793 | 3807 ft | 197 kts | 292° |
| 2026-04-30 10:12 | 45.21306 | 10.73337 | 3406 ft | 195 kts | 328° |
| 2026-04-30 10:12 | 45.22553 | 10.72698 | 3035 ft | 189 kts | 359° |
| 2026-04-30 10:12 | 45.23860 | 10.72785 | 2970 ft | 188 kts | 8° |
| 2026-04-30 10:12 | 45.25177 | 10.72943 | 2966 ft | 189 kts | 8° |
| 2026-04-30 10:13 | 45.26497 | 10.73078 | 2961 ft | 189 kts | 7° |
| 2026-04-30 10:13 | 45.27804 | 10.73184 | 2955 ft | 186 kts | 7° |
| 2026-04-30 10:13 | 45.29004 | 10.73613 | 2892 ft | 172 kts | 35° |
| 2026-04-30 10:13 | 45.29888 | 10.74647 | 2711 ft | 162 kts | 49° |
| 2026-04-30 10:14 | 45.30661 | 10.75798 | 2487 ft | 160 kts | 51° |
| 2026-04-30 10:14 | 45.31426 | 10.76968 | 2273 ft | 161 kts | 51° |
| 2026-04-30 10:14 | 45.32933 | 10.79193 | 1860 ft | 146 kts | 50° |
| 2026-04-30 10:15 | 45.33615 | 10.80179 | 1655 ft | 132 kts | 49° |
| 2026-04-30 10:15 | 45.34238 | 10.81086 | 1477 ft | 128 kts | 50° |
| 2026-04-30 10:15 | 45.34871 | 10.82009 | 1324 ft | 128 kts | 50° |
| 2026-04-30 10:15 | 45.35500 | 10.82923 | 1158 ft | 128 kts | 50° |
| 2026-04-30 10:16 | 45.36123 | 10.83830 | 992 ft | 128 kts | 50° |
| 2026-04-30 10:16 | 45.36752 | 10.84746 | 824 ft | 127 kts | 49° |
| 2026-04-30 10:16 | 45.37367 | 10.85638 | 649 ft | 127 kts | 50° |
| 2026-04-30 10:17 | 45.38600 | 10.87440 | 313 ft | 125 kts | 50° |
| 2026-04-30 10:17 | 45.39590 | 10.88881 | 246 ft | 59 kts | 46° |
| 2026-04-30 10:17 | 45.39863 | 10.89281 | 247 ft | 45 kts | 46° |
| 2026-04-30 10:18 | 45.40071 | 10.89582 | 248 ft | 40 kts | 47° |
| 2026-04-30 10:18 | 45.40230 | 10.89815 | 247 ft | 19 kts | 46° |
| 2026-04-30 10:18 | 45.40286 | 10.89974 | 246 ft | 17 kts | 77° |
| 2026-04-30 10:19 | 45.40331 | 10.90233 | 244 ft | 10 kts | 77° |
| 2026-04-30 10:19 | 45.40307 | 10.90310 | 243 ft | 9 kts | 134° |
| 2026-04-30 10:19 | 45.40258 | 10.90379 | 243 ft | 8 kts | 135° |
| 2026-04-30 10:19 | 45.40241 | 10.90413 | 243 ft | 3 kts | 120° |
| 2026-04-30 10:20 | 45.40225 | 10.90442 | 243 ft | 3 kts | 134° |
| 2026-04-30 10:20 | 45.40213 | 10.90459 | 242 ft | 0 kts | 134° |